sensor_id;sensor_type;location;lat;lon;timestamp;P1;durP1;ratioP1;P2;durP2;ratioP2
8187;SDS011;4135;49.184;9.722;2022-08-21T00:02:20;2.78;;;2.17;;
8187;SDS011;4135;49.184;9.722;2022-08-21T00:04:53;4.05;;;2.50;;
8187;SDS011;4135;49.184;9.722;2022-08-21T00:07:23;5.30;;;2.60;;
8187;SDS011;4135;49.184;9.722;2022-08-21T00:09:54;4.18;;;2.63;;
8187;SDS011;4135;49.184;9.722;2022-08-21T00:12:24;4.00;;;2.30;;
8187;SDS011;4135;49.184;9.722;2022-08-21T00:14:54;2.33;;;2.13;;
8187;SDS011;4135;49.184;9.722;2022-08-21T00:17:24;3.22;;;2.67;;
8187;SDS011;4135;49.184;9.722;2022-08-21T00:19:53;4.03;;;2.88;;
8187;SDS011;4135;49.184;9.722;2022-08-21T00:22:23;5.15;;;2.92;;
8187;SDS011;4135;49.184;9.722;2022-08-21T00:24:53;4.13;;;2.67;;
8187;SDS011;4135;49.184;9.722;2022-08-21T00:27:22;5.38;;;3.15;;
8187;SDS011;4135;49.184;9.722;2022-08-21T00:29:52;4.05;;;2.92;;
8187;SDS011;4135;49.184;9.722;2022-08-21T00:32:22;3.53;;;3.03;;
8187;SDS011;4135;49.184;9.722;2022-08-21T00:34:54;5.25;;;3.03;;
8187;SDS011;4135;49.184;9.722;2022-08-21T00:37:24;4.53;;;3.13;;
8187;SDS011;4135;49.184;9.722;2022-08-21T00:39:53;7.40;;;3.53;;
8187;SDS011;4135;49.184;9.722;2022-08-21T00:42:23;5.47;;;3.63;;
8187;SDS011;4135;49.184;9.722;2022-08-21T00:44:53;6.05;;;3.53;;
8187;SDS011;4135;49.184;9.722;2022-08-21T00:47:22;5.25;;;4.28;;
8187;SDS011;4135;49.184;9.722;2022-08-21T00:49:52;6.15;;;4.38;;
8187;SDS011;4135;49.184;9.722;2022-08-21T00:52:25;5.72;;;3.65;;
8187;SDS011;4135;49.184;9.722;2022-08-21T00:54:58;7.32;;;3.90;;
8187;SDS011;4135;49.184;9.722;2022-08-21T00:57:30;4.95;;;3.38;;
8187;SDS011;4135;49.184;9.722;2022-08-21T01:00:07;5.88;;;3.97;;
8187;SDS011;4135;49.184;9.722;2022-08-21T01:02:39;5.03;;;3.40;;
8187;SDS011;4135;49.184;9.722;2022-08-21T01:05:09;17.30;;;4.50;;
8187;SDS011;4135;49.184;9.722;2022-08-21T01:07:40;4.43;;;3.95;;
8187;SDS011;4135;49.184;9.722;2022-08-21T01:10:10;6.78;;;4.22;;
8187;SDS011;4135;49.184;9.722;2022-08-21T01:12:41;6.95;;;4.38;;
8187;SDS011;4135;49.184;9.722;2022-08-21T01:15:11;5.13;;;4.32;;
8187;SDS011;4135;49.184;9.722;2022-08-21T01:17:44;9.27;;;5.32;;
8187;SDS011;4135;49.184;9.722;2022-08-21T01:20:13;7.07;;;4.90;;
8187;SDS011;4135;49.184;9.722;2022-08-21T01:22:43;7.75;;;4.65;;
8187;SDS011;4135;49.184;9.722;2022-08-21T01:25:17;5.55;;;4.43;;
8187;SDS011;4135;49.184;9.722;2022-08-21T01:27:51;6.05;;;4.22;;
8187;SDS011;4135;49.184;9.722;2022-08-21T01:30:22;8.35;;;4.68;;
8187;SDS011;4135;49.184;9.722;2022-08-21T01:32:53;7.50;;;4.93;;
8187;SDS011;4135;49.184;9.722;2022-08-21T01:35:24;7.78;;;4.97;;
8187;SDS011;4135;49.184;9.722;2022-08-21T01:37:54;10.52;;;4.72;;
8187;SDS011;4135;49.184;9.722;2022-08-21T01:40:23;8.45;;;4.57;;
8187;SDS011;4135;49.184;9.722;2022-08-21T01:42:53;5.53;;;3.97;;
8187;SDS011;4135;49.184;9.722;2022-08-21T01:45:23;6.18;;;5.05;;
8187;SDS011;4135;49.184;9.722;2022-08-21T01:47:53;9.63;;;5.20;;
8187;SDS011;4135;49.184;9.722;2022-08-21T01:50:22;5.43;;;3.88;;
8187;SDS011;4135;49.184;9.722;2022-08-21T01:52:52;7.65;;;5.47;;
8187;SDS011;4135;49.184;9.722;2022-08-21T01:55:21;4.75;;;3.15;;
8187;SDS011;4135;49.184;9.722;2022-08-21T01:57:51;6.03;;;4.18;;
8187;SDS011;4135;49.184;9.722;2022-08-21T02:00:21;5.30;;;4.22;;
8187;SDS011;4135;49.184;9.722;2022-08-21T02:02:51;6.05;;;4.13;;
8187;SDS011;4135;49.184;9.722;2022-08-21T02:05:21;5.70;;;4.25;;
8187;SDS011;4135;49.184;9.722;2022-08-21T02:07:52;7.28;;;4.38;;
8187;SDS011;4135;49.184;9.722;2022-08-21T02:10:24;6.68;;;4.20;;
8187;SDS011;4135;49.184;9.722;2022-08-21T02:12:56;6.97;;;3.75;;
8187;SDS011;4135;49.184;9.722;2022-08-21T02:15:28;5.63;;;3.75;;
8187;SDS011;4135;49.184;9.722;2022-08-21T02:17:59;6.63;;;4.15;;
8187;SDS011;4135;49.184;9.722;2022-08-21T02:20:34;8.20;;;3.83;;
8187;SDS011;4135;49.184;9.722;2022-08-21T02:23:06;4.55;;;3.20;;
8187;SDS011;4135;49.184;9.722;2022-08-21T02:25:37;3.60;;;3.15;;
8187;SDS011;4135;49.184;9.722;2022-08-21T02:28:10;6.28;;;3.40;;
8187;SDS011;4135;49.184;9.722;2022-08-21T02:30:43;5.35;;;2.85;;
8187;SDS011;4135;49.184;9.722;2022-08-21T02:33:14;7.93;;;3.47;;
8187;SDS011;4135;49.184;9.722;2022-08-21T02:35:45;5.45;;;3.50;;
8187;SDS011;4135;49.184;9.722;2022-08-21T02:38:18;8.05;;;3.30;;
8187;SDS011;4135;49.184;9.722;2022-08-21T02:40:51;4.07;;;3.42;;
8187;SDS011;4135;49.184;9.722;2022-08-21T02:43:22;5.13;;;3.22;;
8187;SDS011;4135;49.184;9.722;2022-08-21T02:45:53;5.88;;;3.22;;
8187;SDS011;4135;49.184;9.722;2022-08-21T02:48:25;4.47;;;3.20;;
8187;SDS011;4135;49.184;9.722;2022-08-21T02:50:58;7.43;;;3.20;;
8187;SDS011;4135;49.184;9.722;2022-08-21T02:53:36;4.53;;;2.65;;
8187;SDS011;4135;49.184;9.722;2022-08-21T02:56:07;4.10;;;2.83;;
8187;SDS011;4135;49.184;9.722;2022-08-21T02:58:40;2.53;;;2.08;;
8187;SDS011;4135;49.184;9.722;2022-08-21T03:01:13;4.20;;;3.08;;
8187;SDS011;4135;49.184;9.722;2022-08-21T03:03:45;5.80;;;3.28;;
8187;SDS011;4135;49.184;9.722;2022-08-21T03:06:16;3.92;;;3.03;;
8187;SDS011;4135;49.184;9.722;2022-08-21T03:08:48;6.45;;;3.78;;
8187;SDS011;4135;49.184;9.722;2022-08-21T03:11:17;5.70;;;3.28;;
8187;SDS011;4135;49.184;9.722;2022-08-21T03:13:49;5.75;;;2.95;;
8187;SDS011;4135;49.184;9.722;2022-08-21T03:16:19;6.75;;;3.25;;
8187;SDS011;4135;49.184;9.722;2022-08-21T03:18:49;5.63;;;2.97;;
8187;SDS011;4135;49.184;9.722;2022-08-21T03:21:19;5.85;;;2.88;;
8187;SDS011;4135;49.184;9.722;2022-08-21T03:23:48;6.13;;;2.88;;
8187;SDS011;4135;49.184;9.722;2022-08-21T03:26:18;4.00;;;2.60;;
8187;SDS011;4135;49.184;9.722;2022-08-21T03:28:47;6.90;;;2.92;;
8187;SDS011;4135;49.184;9.722;2022-08-21T03:31:17;4.78;;;3.42;;
8187;SDS011;4135;49.184;9.722;2022-08-21T03:33:47;4.47;;;3.05;;
8187;SDS011;4135;49.184;9.722;2022-08-21T03:36:16;6.47;;;3.08;;
8187;SDS011;4135;49.184;9.722;2022-08-21T03:38:46;4.88;;;3.30;;
8187;SDS011;4135;49.184;9.722;2022-08-21T03:41:16;4.03;;;3.10;;
8187;SDS011;4135;49.184;9.722;2022-08-21T03:43:45;7.15;;;3.33;;
8187;SDS011;4135;49.184;9.722;2022-08-21T03:46:15;11.60;;;3.13;;
8187;SDS011;4135;49.184;9.722;2022-08-21T03:48:45;4.68;;;3.30;;
8187;SDS011;4135;49.184;9.722;2022-08-21T03:51:14;5.45;;;3.65;;
8187;SDS011;4135;49.184;9.722;2022-08-21T03:53:44;3.63;;;3.05;;
8187;SDS011;4135;49.184;9.722;2022-08-21T03:56:14;6.82;;;3.40;;
8187;SDS011;4135;49.184;9.722;2022-08-21T03:58:45;4.25;;;3.50;;
8187;SDS011;4135;49.184;9.722;2022-08-21T04:01:14;6.20;;;3.72;;
8187;SDS011;4135;49.184;9.722;2022-08-21T04:03:44;4.57;;;3.42;;
8187;SDS011;4135;49.184;9.722;2022-08-21T04:06:13;6.15;;;4.13;;
8187;SDS011;4135;49.184;9.722;2022-08-21T04:08:43;5.18;;;3.83;;
8187;SDS011;4135;49.184;9.722;2022-08-21T04:11:12;5.28;;;3.90;;
8187;SDS011;4135;49.184;9.722;2022-08-21T04:13:43;7.28;;;3.80;;
8187;SDS011;4135;49.184;9.722;2022-08-21T04:16:13;5.82;;;3.58;;
8187;SDS011;4135;49.184;9.722;2022-08-21T04:18:43;9.32;;;3.97;;
8187;SDS011;4135;49.184;9.722;2022-08-21T04:21:13;6.78;;;4.13;;
8187;SDS011;4135;49.184;9.722;2022-08-21T04:23:42;5.03;;;3.80;;
8187;SDS011;4135;49.184;9.722;2022-08-21T04:26:12;5.20;;;3.78;;
8187;SDS011;4135;49.184;9.722;2022-08-21T04:28:41;9.27;;;3.70;;
8187;SDS011;4135;49.184;9.722;2022-08-21T04:31:11;3.58;;;3.33;;
8187;SDS011;4135;49.184;9.722;2022-08-21T04:33:40;3.80;;;3.13;;
8187;SDS011;4135;49.184;9.722;2022-08-21T04:36:10;4.90;;;3.60;;
8187;SDS011;4135;49.184;9.722;2022-08-21T04:38:40;6.72;;;3.95;;
8187;SDS011;4135;49.184;9.722;2022-08-21T04:41:09;9.60;;;3.70;;
8187;SDS011;4135;49.184;9.722;2022-08-21T04:43:40;5.18;;;3.58;;
8187;SDS011;4135;49.184;9.722;2022-08-21T04:46:10;6.63;;;3.33;;
8187;SDS011;4135;49.184;9.722;2022-08-21T04:48:39;6.88;;;3.60;;
8187;SDS011;4135;49.184;9.722;2022-08-21T04:51:16;4.72;;;3.20;;
8187;SDS011;4135;49.184;9.722;2022-08-21T04:53:52;4.93;;;4.00;;
8187;SDS011;4135;49.184;9.722;2022-08-21T04:56:27;5.13;;;3.83;;
8187;SDS011;4135;49.184;9.722;2022-08-21T04:59:04;7.47;;;3.80;;
8187;SDS011;4135;49.184;9.722;2022-08-21T05:01:40;6.20;;;3.90;;
8187;SDS011;4135;49.184;9.722;2022-08-21T05:04:11;8.98;;;4.25;;
8187;SDS011;4135;49.184;9.722;2022-08-21T05:06:43;5.32;;;3.80;;
8187;SDS011;4135;49.184;9.722;2022-08-21T05:09:16;5.75;;;3.75;;
8187;SDS011;4135;49.184;9.722;2022-08-21T05:11:47;5.63;;;3.72;;
8187;SDS011;4135;49.184;9.722;2022-08-21T05:14:17;7.47;;;4.00;;
8187;SDS011;4135;49.184;9.722;2022-08-21T05:16:48;7.13;;;3.85;;
8187;SDS011;4135;49.184;9.722;2022-08-21T05:19:17;5.28;;;3.67;;
8187;SDS011;4135;49.184;9.722;2022-08-21T05:21:47;5.80;;;3.67;;
8187;SDS011;4135;49.184;9.722;2022-08-21T05:24:16;4.82;;;3.70;;
8187;SDS011;4135;49.184;9.722;2022-08-21T05:26:46;4.60;;;4.05;;
8187;SDS011;4135;49.184;9.722;2022-08-21T05:29:16;6.15;;;3.63;;
8187;SDS011;4135;49.184;9.722;2022-08-21T05:31:46;5.20;;;3.97;;
8187;SDS011;4135;49.184;9.722;2022-08-21T05:34:20;7.00;;;3.65;;
8187;SDS011;4135;49.184;9.722;2022-08-21T05:36:51;6.60;;;3.08;;
8187;SDS011;4135;49.184;9.722;2022-08-21T05:39:20;5.05;;;3.63;;
8187;SDS011;4135;49.184;9.722;2022-08-21T05:41:50;3.75;;;3.45;;
8187;SDS011;4135;49.184;9.722;2022-08-21T05:44:19;4.55;;;3.35;;
8187;SDS011;4135;49.184;9.722;2022-08-21T05:46:49;6.70;;;3.97;;
8187;SDS011;4135;49.184;9.722;2022-08-21T05:49:19;6.55;;;3.55;;
8187;SDS011;4135;49.184;9.722;2022-08-21T05:51:48;4.55;;;3.28;;
8187;SDS011;4135;49.184;9.722;2022-08-21T05:54:18;4.45;;;3.78;;
8187;SDS011;4135;49.184;9.722;2022-08-21T05:56:47;4.03;;;3.03;;
8187;SDS011;4135;49.184;9.722;2022-08-21T05:59:17;5.32;;;3.40;;
8187;SDS011;4135;49.184;9.722;2022-08-21T06:01:47;4.03;;;3.10;;
8187;SDS011;4135;49.184;9.722;2022-08-21T06:04:17;3.58;;;3.03;;
8187;SDS011;4135;49.184;9.722;2022-08-21T06:06:46;5.22;;;3.47;;
8187;SDS011;4135;49.184;9.722;2022-08-21T06:09:16;7.50;;;3.25;;
8187;SDS011;4135;49.184;9.722;2022-08-21T06:11:46;6.70;;;3.33;;
8187;SDS011;4135;49.184;9.722;2022-08-21T06:14:15;6.43;;;3.08;;
8187;SDS011;4135;49.184;9.722;2022-08-21T06:16:45;2.65;;;2.50;;
8187;SDS011;4135;49.184;9.722;2022-08-21T06:19:15;4.00;;;3.13;;
8187;SDS011;4135;49.184;9.722;2022-08-21T06:21:44;5.30;;;3.65;;
8187;SDS011;4135;49.184;9.722;2022-08-21T06:24:14;5.10;;;3.35;;
8187;SDS011;4135;49.184;9.722;2022-08-21T06:26:43;3.70;;;2.50;;
8187;SDS011;4135;49.184;9.722;2022-08-21T06:29:13;4.78;;;2.85;;
8187;SDS011;4135;49.184;9.722;2022-08-21T06:31:46;5.60;;;2.85;;
8187;SDS011;4135;49.184;9.722;2022-08-21T06:34:17;5.93;;;3.13;;
8187;SDS011;4135;49.184;9.722;2022-08-21T06:36:47;3.40;;;3.03;;
8187;SDS011;4135;49.184;9.722;2022-08-21T06:39:16;7.15;;;3.17;;
8187;SDS011;4135;49.184;9.722;2022-08-21T06:41:46;4.18;;;3.13;;
8187;SDS011;4135;49.184;9.722;2022-08-21T06:44:16;5.25;;;3.00;;
8187;SDS011;4135;49.184;9.722;2022-08-21T06:46:46;3.25;;;2.72;;
8187;SDS011;4135;49.184;9.722;2022-08-21T06:49:16;6.05;;;3.28;;
8187;SDS011;4135;49.184;9.722;2022-08-21T06:51:45;7.70;;;3.47;;
8187;SDS011;4135;49.184;9.722;2022-08-21T06:54:15;5.97;;;3.35;;
8187;SDS011;4135;49.184;9.722;2022-08-21T06:56:44;4.35;;;2.92;;
8187;SDS011;4135;49.184;9.722;2022-08-21T06:59:14;4.90;;;3.00;;
8187;SDS011;4135;49.184;9.722;2022-08-21T07:01:44;7.10;;;4.18;;
8187;SDS011;4135;49.184;9.722;2022-08-21T07:04:13;9.15;;;4.55;;
8187;SDS011;4135;49.184;9.722;2022-08-21T07:06:43;9.45;;;4.97;;
8187;SDS011;4135;49.184;9.722;2022-08-21T07:09:12;8.20;;;5.45;;
8187;SDS011;4135;49.184;9.722;2022-08-21T07:11:42;9.13;;;4.72;;
8187;SDS011;4135;49.184;9.722;2022-08-21T07:14:14;6.32;;;4.53;;
8187;SDS011;4135;49.184;9.722;2022-08-21T07:16:44;8.65;;;5.05;;
8187;SDS011;4135;49.184;9.722;2022-08-21T07:19:14;9.80;;;6.55;;
8187;SDS011;4135;49.184;9.722;2022-08-21T07:21:43;18.98;;;6.35;;
8187;SDS011;4135;49.184;9.722;2022-08-21T07:24:13;7.22;;;4.68;;
8187;SDS011;4135;49.184;9.722;2022-08-21T07:26:43;7.90;;;4.20;;
8187;SDS011;4135;49.184;9.722;2022-08-21T07:29:12;8.73;;;4.83;;
8187;SDS011;4135;49.184;9.722;2022-08-21T07:31:42;9.27;;;5.50;;
8187;SDS011;4135;49.184;9.722;2022-08-21T07:34:12;8.77;;;4.45;;
8187;SDS011;4135;49.184;9.722;2022-08-21T07:36:41;9.73;;;5.15;;
8187;SDS011;4135;49.184;9.722;2022-08-21T07:39:11;10.25;;;4.63;;
8187;SDS011;4135;49.184;9.722;2022-08-21T07:41:41;9.52;;;4.78;;
8187;SDS011;4135;49.184;9.722;2022-08-21T07:44:10;6.68;;;4.60;;
8187;SDS011;4135;49.184;9.722;2022-08-21T07:46:40;10.65;;;4.57;;
8187;SDS011;4135;49.184;9.722;2022-08-21T07:49:09;10.20;;;4.47;;
8187;SDS011;4135;49.184;9.722;2022-08-21T07:51:39;6.45;;;4.25;;
8187;SDS011;4135;49.184;9.722;2022-08-21T07:54:08;7.57;;;3.70;;
8187;SDS011;4135;49.184;9.722;2022-08-21T07:56:38;11.35;;;4.00;;
8187;SDS011;4135;49.184;9.722;2022-08-21T07:59:07;8.27;;;4.47;;
8187;SDS011;4135;49.184;9.722;2022-08-21T08:01:37;6.60;;;4.72;;
8187;SDS011;4135;49.184;9.722;2022-08-21T08:04:06;7.22;;;4.65;;
8187;SDS011;4135;49.184;9.722;2022-08-21T08:06:36;8.77;;;4.85;;
8187;SDS011;4135;49.184;9.722;2022-08-21T08:09:05;8.60;;;4.60;;
8187;SDS011;4135;49.184;9.722;2022-08-21T08:11:35;8.68;;;4.63;;
8187;SDS011;4135;49.184;9.722;2022-08-21T08:14:07;6.85;;;4.40;;
8187;SDS011;4135;49.184;9.722;2022-08-21T08:16:37;6.38;;;4.05;;
8187;SDS011;4135;49.184;9.722;2022-08-21T08:19:06;5.60;;;4.38;;
8187;SDS011;4135;49.184;9.722;2022-08-21T08:21:36;6.07;;;4.72;;
8187;SDS011;4135;49.184;9.722;2022-08-21T08:24:07;7.15;;;4.38;;
8187;SDS011;4135;49.184;9.722;2022-08-21T08:26:36;5.90;;;4.38;;
8187;SDS011;4135;49.184;9.722;2022-08-21T08:29:06;11.35;;;5.28;;
8187;SDS011;4135;49.184;9.722;2022-08-21T08:31:35;7.15;;;4.45;;
8187;SDS011;4135;49.184;9.722;2022-08-21T08:34:05;6.40;;;4.43;;
8187;SDS011;4135;49.184;9.722;2022-08-21T08:36:36;7.50;;;5.03;;
8187;SDS011;4135;49.184;9.722;2022-08-21T08:39:05;8.38;;;5.05;;
8187;SDS011;4135;49.184;9.722;2022-08-21T08:41:35;6.93;;;4.88;;
8187;SDS011;4135;49.184;9.722;2022-08-21T08:44:06;8.77;;;5.30;;
8187;SDS011;4135;49.184;9.722;2022-08-21T08:46:46;7.18;;;4.82;;
8187;SDS011;4135;49.184;9.722;2022-08-21T08:49:20;7.93;;;5.40;;
8187;SDS011;4135;49.184;9.722;2022-08-21T08:52:20;9.48;;;5.47;;
8187;SDS011;4135;49.184;9.722;2022-08-21T08:57:38;7.15;;;4.60;;
8187;SDS011;4135;49.184;9.722;2022-08-21T09:00:12;8.90;;;4.90;;
8187;SDS011;4135;49.184;9.722;2022-08-21T09:02:44;8.55;;;5.03;;
8187;SDS011;4135;49.184;9.722;2022-08-21T09:05:22;8.60;;;4.82;;
8187;SDS011;4135;49.184;9.722;2022-08-21T09:11:03;5.93;;;4.28;;
8187;SDS011;4135;49.184;9.722;2022-08-21T09:16:34;6.80;;;5.13;;
8187;SDS011;4135;49.184;9.722;2022-08-21T09:25:17;6.80;;;4.95;;
8187;SDS011;4135;49.184;9.722;2022-08-21T09:27:51;7.95;;;4.93;;
8187;SDS011;4135;49.184;9.722;2022-08-21T09:30:29;9.20;;;5.35;;
8187;SDS011;4135;49.184;9.722;2022-08-21T09:33:01;5.75;;;4.57;;
8187;SDS011;4135;49.184;9.722;2022-08-21T09:35:30;9.57;;;4.88;;
8187;SDS011;4135;49.184;9.722;2022-08-21T09:38:03;8.15;;;4.65;;
8187;SDS011;4135;49.184;9.722;2022-08-21T09:40:39;7.40;;;4.30;;
8187;SDS011;4135;49.184;9.722;2022-08-21T09:45:43;10.50;;;4.93;;
8187;SDS011;4135;49.184;9.722;2022-08-21T09:48:17;6.13;;;4.95;;
8187;SDS011;4135;49.184;9.722;2022-08-21T09:50:49;5.60;;;4.45;;
8187;SDS011;4135;49.184;9.722;2022-08-21T09:53:21;5.55;;;4.07;;
8187;SDS011;4135;49.184;9.722;2022-08-21T09:55:54;5.10;;;3.75;;
8187;SDS011;4135;49.184;9.722;2022-08-21T09:58:46;8.80;;;4.38;;
8187;SDS011;4135;49.184;9.722;2022-08-21T10:01:19;6.20;;;4.22;;
8187;SDS011;4135;49.184;9.722;2022-08-21T10:07:12;5.32;;;3.40;;
8187;SDS011;4135;49.184;9.722;2022-08-21T10:09:43;5.45;;;4.25;;
8187;SDS011;4135;49.184;9.722;2022-08-21T10:12:17;7.20;;;4.00;;
8187;SDS011;4135;49.184;9.722;2022-08-21T10:15:10;7.53;;;4.63;;
8187;SDS011;4135;49.184;9.722;2022-08-21T10:21:15;5.32;;;4.15;;
8187;SDS011;4135;49.184;9.722;2022-08-21T10:29:03;6.47;;;3.95;;
8187;SDS011;4135;49.184;9.722;2022-08-21T10:37:39;5.15;;;3.42;;
8187;SDS011;4135;49.184;9.722;2022-08-21T10:45:39;4.20;;;3.25;;
8187;SDS011;4135;49.184;9.722;2022-08-21T10:54:05;5.18;;;3.63;;
8187;SDS011;4135;49.184;9.722;2022-08-21T10:56:40;4.68;;;3.03;;
8187;SDS011;4135;49.184;9.722;2022-08-21T11:01:51;8.48;;;3.17;;
8187;SDS011;4135;49.184;9.722;2022-08-21T11:04:29;4.43;;;3.05;;
8187;SDS011;4135;49.184;9.722;2022-08-21T11:07:06;9.68;;;3.42;;
8187;SDS011;4135;49.184;9.722;2022-08-21T11:09:47;6.13;;;2.97;;
8187;SDS011;4135;49.184;9.722;2022-08-21T11:12:25;5.57;;;2.95;;
8187;SDS011;4135;49.184;9.722;2022-08-21T11:17:47;6.85;;;2.97;;
8187;SDS011;4135;49.184;9.722;2022-08-21T11:20:29;4.65;;;3.10;;
8187;SDS011;4135;49.184;9.722;2022-08-21T11:23:14;4.80;;;3.05;;
8187;SDS011;4135;49.184;9.722;2022-08-21T11:26:05;4.70;;;3.17;;
8187;SDS011;4135;49.184;9.722;2022-08-21T11:28:47;5.55;;;2.92;;
8187;SDS011;4135;49.184;9.722;2022-08-21T11:31:34;6.22;;;2.85;;
8187;SDS011;4135;49.184;9.722;2022-08-21T11:37:23;5.18;;;2.85;;
8187;SDS011;4135;49.184;9.722;2022-08-21T11:43:25;3.33;;;2.63;;
8187;SDS011;4135;49.184;9.722;2022-08-21T11:49:21;6.57;;;2.30;;
8187;SDS011;4135;49.184;9.722;2022-08-21T11:57:35;4.07;;;2.65;;
8187;SDS011;4135;49.184;9.722;2022-08-21T12:03:07;4.43;;;2.75;;
8187;SDS011;4135;49.184;9.722;2022-08-21T12:05:53;3.53;;;2.40;;
8187;SDS011;4135;49.184;9.722;2022-08-21T12:08:35;3.55;;;2.42;;
8187;SDS011;4135;49.184;9.722;2022-08-21T12:14:10;5.65;;;2.75;;
8187;SDS011;4135;49.184;9.722;2022-08-21T12:16:46;3.67;;;2.35;;
8187;SDS011;4135;49.184;9.722;2022-08-21T12:27:01;4.35;;;2.70;;
8187;SDS011;4135;49.184;9.722;2022-08-21T12:29:59;3.40;;;2.53;;
8187;SDS011;4135;49.184;9.722;2022-08-21T12:32:42;5.65;;;2.83;;
8187;SDS011;4135;49.184;9.722;2022-08-21T12:35:18;5.30;;;2.38;;
8187;SDS011;4135;49.184;9.722;2022-08-21T12:38:09;9.85;;;2.60;;
8187;SDS011;4135;49.184;9.722;2022-08-21T12:43:30;6.35;;;2.47;;
8187;SDS011;4135;49.184;9.722;2022-08-21T12:46:21;4.68;;;2.75;;
8187;SDS011;4135;49.184;9.722;2022-08-21T12:49:00;4.43;;;2.35;;
8187;SDS011;4135;49.184;9.722;2022-08-21T12:54:49;5.30;;;2.40;;
8187;SDS011;4135;49.184;9.722;2022-08-21T12:57:23;3.78;;;2.38;;
8187;SDS011;4135;49.184;9.722;2022-08-21T12:59:59;5.68;;;2.45;;
8187;SDS011;4135;49.184;9.722;2022-08-21T13:02:37;4.60;;;2.25;;
8187;SDS011;4135;49.184;9.722;2022-08-21T13:05:29;3.17;;;1.95;;
8187;SDS011;4135;49.184;9.722;2022-08-21T13:08:04;4.75;;;2.60;;
8187;SDS011;4135;49.184;9.722;2022-08-21T13:10:37;3.92;;;2.42;;
8187;SDS011;4135;49.184;9.722;2022-08-21T13:13:18;6.38;;;2.40;;
8187;SDS011;4135;49.184;9.722;2022-08-21T13:15:50;4.30;;;2.30;;
8187;SDS011;4135;49.184;9.722;2022-08-21T13:18:34;4.75;;;2.25;;
8187;SDS011;4135;49.184;9.722;2022-08-21T13:21:26;3.33;;;2.08;;
8187;SDS011;4135;49.184;9.722;2022-08-21T13:24:15;2.75;;;2.00;;
8187;SDS011;4135;49.184;9.722;2022-08-21T13:26:47;4.00;;;2.25;;
8187;SDS011;4135;49.184;9.722;2022-08-21T13:29:19;5.93;;;2.10;;
8187;SDS011;4135;49.184;9.722;2022-08-21T13:31:55;3.85;;;2.30;;
8187;SDS011;4135;49.184;9.722;2022-08-21T13:34:28;4.32;;;2.28;;
8187;SDS011;4135;49.184;9.722;2022-08-21T13:37:02;6.13;;;2.70;;
8187;SDS011;4135;49.184;9.722;2022-08-21T13:39:34;7.05;;;2.63;;
8187;SDS011;4135;49.184;9.722;2022-08-21T13:42:04;5.00;;;2.63;;
8187;SDS011;4135;49.184;9.722;2022-08-21T13:44:43;3.30;;;1.80;;
8187;SDS011;4135;49.184;9.722;2022-08-21T13:47:15;4.43;;;2.55;;
8187;SDS011;4135;49.184;9.722;2022-08-21T13:49:46;4.88;;;2.58;;
8187;SDS011;4135;49.184;9.722;2022-08-21T13:54:54;7.30;;;2.60;;
8187;SDS011;4135;49.184;9.722;2022-08-21T13:57:32;2.70;;;2.13;;
8187;SDS011;4135;49.184;9.722;2022-08-21T14:00:14;4.18;;;2.17;;
8187;SDS011;4135;49.184;9.722;2022-08-21T14:02:49;4.00;;;2.35;;
8187;SDS011;4135;49.184;9.722;2022-08-21T14:05:26;5.38;;;2.63;;
8187;SDS011;4135;49.184;9.722;2022-08-21T14:08:08;5.13;;;3.22;;
8187;SDS011;4135;49.184;9.722;2022-08-21T14:10:43;4.68;;;2.58;;
8187;SDS011;4135;49.184;9.722;2022-08-21T14:16:18;3.22;;;2.58;;
8187;SDS011;4135;49.184;9.722;2022-08-21T14:21:32;5.57;;;2.63;;
8187;SDS011;4135;49.184;9.722;2022-08-21T14:24:12;6.15;;;2.22;;
8187;SDS011;4135;49.184;9.722;2022-08-21T14:26:54;7.30;;;3.17;;
8187;SDS011;4135;49.184;9.722;2022-08-21T14:29:25;6.47;;;3.13;;
8187;SDS011;4135;49.184;9.722;2022-08-21T14:31:58;8.70;;;2.70;;
8187;SDS011;4135;49.184;9.722;2022-08-21T14:34:28;6.07;;;3.15;;
8187;SDS011;4135;49.184;9.722;2022-08-21T14:36:58;8.20;;;2.90;;
8187;SDS011;4135;49.184;9.722;2022-08-21T14:39:27;4.85;;;2.92;;
8187;SDS011;4135;49.184;9.722;2022-08-21T14:41:57;5.10;;;2.63;;
8187;SDS011;4135;49.184;9.722;2022-08-21T14:44:28;4.70;;;2.95;;
8187;SDS011;4135;49.184;9.722;2022-08-21T14:46:57;5.68;;;3.05;;
8187;SDS011;4135;49.184;9.722;2022-08-21T14:49:28;6.88;;;3.40;;
8187;SDS011;4135;49.184;9.722;2022-08-21T14:51:57;5.70;;;2.85;;
8187;SDS011;4135;49.184;9.722;2022-08-21T14:54:28;5.03;;;3.28;;
8187;SDS011;4135;49.184;9.722;2022-08-21T14:57:00;5.05;;;2.88;;
8187;SDS011;4135;49.184;9.722;2022-08-21T14:59:34;2.92;;;2.38;;
8187;SDS011;4135;49.184;9.722;2022-08-21T15:02:04;7.05;;;2.58;;
8187;SDS011;4135;49.184;9.722;2022-08-21T15:04:35;5.47;;;2.88;;
8187;SDS011;4135;49.184;9.722;2022-08-21T15:07:04;5.38;;;2.42;;
8187;SDS011;4135;49.184;9.722;2022-08-21T15:09:34;6.07;;;2.63;;
8187;SDS011;4135;49.184;9.722;2022-08-21T15:12:03;5.18;;;2.60;;
8187;SDS011;4135;49.184;9.722;2022-08-21T15:14:35;3.70;;;2.47;;
8187;SDS011;4135;49.184;9.722;2022-08-21T15:17:09;4.88;;;3.05;;
8187;SDS011;4135;49.184;9.722;2022-08-21T15:19:39;3.75;;;2.28;;
8187;SDS011;4135;49.184;9.722;2022-08-21T15:22:09;7.93;;;2.90;;
8187;SDS011;4135;49.184;9.722;2022-08-21T15:24:38;4.80;;;2.47;;
8187;SDS011;4135;49.184;9.722;2022-08-21T15:27:08;5.18;;;2.72;;
8187;SDS011;4135;49.184;9.722;2022-08-21T15:29:39;4.25;;;2.40;;
8187;SDS011;4135;49.184;9.722;2022-08-21T15:32:21;6.32;;;2.88;;
8187;SDS011;4135;49.184;9.722;2022-08-21T15:34:55;5.28;;;2.80;;
8187;SDS011;4135;49.184;9.722;2022-08-21T15:37:25;4.78;;;2.95;;
8187;SDS011;4135;49.184;9.722;2022-08-21T15:39:55;3.75;;;2.53;;
8187;SDS011;4135;49.184;9.722;2022-08-21T15:42:25;4.68;;;2.33;;
8187;SDS011;4135;49.184;9.722;2022-08-21T15:44:56;4.95;;;2.95;;
8187;SDS011;4135;49.184;9.722;2022-08-21T15:47:33;7.05;;;3.30;;
8187;SDS011;4135;49.184;9.722;2022-08-21T15:50:06;3.08;;;2.60;;
8187;SDS011;4135;49.184;9.722;2022-08-21T15:52:37;5.78;;;3.45;;
8187;SDS011;4135;49.184;9.722;2022-08-21T15:55:07;4.97;;;3.17;;
8187;SDS011;4135;49.184;9.722;2022-08-21T15:57:38;4.55;;;2.78;;
8187;SDS011;4135;49.184;9.722;2022-08-21T16:02:47;3.60;;;2.10;;
8187;SDS011;4135;49.184;9.722;2022-08-21T16:05:20;3.92;;;2.58;;
8187;SDS011;4135;49.184;9.722;2022-08-21T16:07:50;3.42;;;2.33;;
8187;SDS011;4135;49.184;9.722;2022-08-21T16:10:21;5.45;;;3.10;;
8187;SDS011;4135;49.184;9.722;2022-08-21T16:12:54;4.85;;;2.85;;
8187;SDS011;4135;49.184;9.722;2022-08-21T16:15:27;3.42;;;2.53;;
8187;SDS011;4135;49.184;9.722;2022-08-21T16:17:57;4.00;;;2.03;;
8187;SDS011;4135;49.184;9.722;2022-08-21T16:20:27;4.53;;;2.75;;
8187;SDS011;4135;49.184;9.722;2022-08-21T16:22:57;4.95;;;2.55;;
8187;SDS011;4135;49.184;9.722;2022-08-21T16:25:27;5.88;;;3.17;;
8187;SDS011;4135;49.184;9.722;2022-08-21T16:27:57;3.95;;;2.10;;
8187;SDS011;4135;49.184;9.722;2022-08-21T16:30:30;6.05;;;1.88;;
8187;SDS011;4135;49.184;9.722;2022-08-21T16:33:01;4.30;;;2.60;;
8187;SDS011;4135;49.184;9.722;2022-08-21T16:35:33;3.08;;;1.95;;
8187;SDS011;4135;49.184;9.722;2022-08-21T16:38:02;3.22;;;2.50;;
8187;SDS011;4135;49.184;9.722;2022-08-21T16:40:32;3.47;;;2.22;;
8187;SDS011;4135;49.184;9.722;2022-08-21T16:43:01;4.40;;;2.20;;
8187;SDS011;4135;49.184;9.722;2022-08-21T16:45:31;2.42;;;2.10;;
8187;SDS011;4135;49.184;9.722;2022-08-21T16:48:01;4.35;;;2.35;;
8187;SDS011;4135;49.184;9.722;2022-08-21T16:50:32;4.32;;;2.75;;
8187;SDS011;4135;49.184;9.722;2022-08-21T16:53:02;6.05;;;2.63;;
8187;SDS011;4135;49.184;9.722;2022-08-21T16:55:35;2.90;;;1.95;;
8187;SDS011;4135;49.184;9.722;2022-08-21T16:58:08;6.90;;;2.65;;
8187;SDS011;4135;49.184;9.722;2022-08-21T17:00:42;5.78;;;3.15;;
8187;SDS011;4135;49.184;9.722;2022-08-21T17:03:13;5.82;;;2.75;;
8187;SDS011;4135;49.184;9.722;2022-08-21T17:05:45;6.10;;;2.95;;
8187;SDS011;4135;49.184;9.722;2022-08-21T17:08:15;6.05;;;2.58;;
8187;SDS011;4135;49.184;9.722;2022-08-21T17:10:46;6.28;;;2.65;;
8187;SDS011;4135;49.184;9.722;2022-08-21T17:13:18;5.13;;;2.78;;
8187;SDS011;4135;49.184;9.722;2022-08-21T17:15:48;5.18;;;2.53;;
8187;SDS011;4135;49.184;9.722;2022-08-21T17:18:18;3.90;;;2.38;;
8187;SDS011;4135;49.184;9.722;2022-08-21T17:20:50;5.25;;;2.65;;
8187;SDS011;4135;49.184;9.722;2022-08-21T17:23:19;4.55;;;2.67;;
8187;SDS011;4135;49.184;9.722;2022-08-21T17:25:50;8.95;;;3.05;;